Time;durP1;ratioP1;P1;durP2;ratioP2;P2;SDS_P1;SDS_P2;PMS_P1;PMS_P2;Temp;Humidity;BMP_temperature;BMP_pressure;BME280_temperature;BME280_humidity;BME280_pressure;Samples;Min_cycle;Max_cycle;Signal;HPM_P1;HPM_P2
2022/04/12 00:00:45;;;;;;;11.38;6.15;;;;;;;;;;5012038;28;20277;-73
2022/04/12 00:03:11;;;;;;;15.18;6.47;;;;;;;;;;5013489;28;20025;-73
2022/04/12 00:05:37;;;;;;;10.40;5.72;;;;;;;;;;4998535;28;20325;-74
2022/04/12 00:08:03;;;;;;;12.50;6.70;;;;;;;;;;5009058;28;20061;-74
2022/04/12 00:10:28;;;;;;;13.35;6.80;;;;;;;;;;5017127;28;20029;-74
2022/04/12 00:12:54;;;;;;;11.65;7.43;;;;;;;;;;5010443;28;20018;-74
2022/04/12 00:15:19;;;;;;;15.50;6.63;;;;;;;;;;5001763;28;20030;-74
2022/04/12 00:20:28;;;;;;;11.65;5.78;;;;;;;;;;5012310;28;20087;-74
2022/04/12 00:22:54;;;;;;;9.40;5.97;;;;;;;;;;5004470;28;20428;-74
2022/04/12 00:25:22;;;;;;;12.90;5.47;;;;;;;;;;5005649;28;20505;-74
2022/04/12 00:27:47;;;;;;;11.57;6.13;;;;;;;;;;5001715;28;20156;-74
2022/04/12 00:30:12;;;;;;;9.55;5.90;;;;;;;;;;5019282;28;20078;-73
2022/04/12 00:32:38;;;;;;;9.30;6.38;;;;;;;;;;5007527;28;20437;-74
2022/04/12 00:35:03;;;;;;;12.25;6.20;;;;;;;;;;5009880;28;20278;-73
2022/04/12 00:37:28;;;;;;;11.35;5.82;;;;;;;;;;5011213;28;20029;-73
2022/04/12 00:39:54;;;;;;;10.93;5.63;;;;;;;;;;5002788;28;20019;-73
2022/04/12 00:42:19;;;;;;;9.90;5.60;;;;;;;;;;5013365;28;20709;-74
2022/04/12 00:44:44;;;;;;;13.05;6.38;;;;;;;;;;4997806;28;20026;-74
2022/04/12 00:47:09;;;;;;;9.48;5.78;;;;;;;;;;5033694;28;20025;-74
2022/04/12 00:49:35;;;;;;;10.98;5.70;;;;;;;;;;5009405;28;20018;-74
2022/04/12 00:52:00;;;;;;;10.40;5.15;;;;;;;;;;5002305;28;20629;-74
2022/04/12 00:54:26;;;;;;;9.98;5.88;;;;;;;;;;5003640;28;20425;-74
2022/04/12 00:56:52;;;;;;;9.30;4.93;;;;;;;;;;4997455;28;20030;-74
2022/04/12 00:59:17;;;;;;;12.85;6.13;;;;;;;;;;5009725;28;20129;-74
2022/04/12 01:01:43;;;;;;;11.45;6.40;;;;;;;;;;5001064;28;20812;-74
2022/04/12 01:04:08;;;;;;;9.15;6.00;;;;;;;;;;5009856;28;20037;-73
2022/04/12 01:06:33;;;;;;;12.27;6.03;;;;;;;;;;5002499;28;20358;-74
2022/04/12 01:08:58;;;;;;;12.02;6.03;;;;;;;;;;5003513;28;20575;-73
2022/04/12 01:11:26;;;;;;;9.85;5.82;;;;;;;;;;5006149;28;20025;-73
2022/04/12 01:13:51;;;;;;;8.40;5.35;;;;;;;;;;5007873;28;20081;-74
2022/04/12 01:16:17;;;;;;;10.77;5.55;;;;;;;;;;5001491;28;20030;-74
2022/04/12 01:18:42;;;;;;;11.85;6.53;;;;;;;;;;5008810;28;20044;-74
2022/04/12 01:21:07;;;;;;;10.57;6.25;;;;;;;;;;5004447;28;20036;-74
2022/04/12 01:23:51;;;;;;;8.82;5.85;;;;;;;;;;4998921;28;20613;-74
2022/04/12 01:26:16;;;;;;;10.30;6.38;;;;;;;;;;4997809;28;20081;-73
2022/04/12 01:28:47;;;;;;;8.90;5.60;;;;;;;;;;5018865;28;20029;-74
2022/04/12 01:31:12;;;;;;;10.18;5.80;;;;;;;;;;5002181;28;20256;-74
2022/04/12 01:33:38;;;;;;;12.25;6.57;;;;;;;;;;4998767;28;20463;-74
2022/04/12 01:36:03;;;;;;;12.10;6.43;;;;;;;;;;5000543;28;20271;-74
2022/04/12 01:38:28;;;;;;;12.52;5.85;;;;;;;;;;5004640;28;20747;-74
2022/04/12 01:40:53;;;;;;;7.88;5.68;;;;;;;;;;5005341;28;20024;-74
2022/04/12 01:43:18;;;;;;;8.55;5.60;;;;;;;;;;5001830;28;20030;-74
2022/04/12 01:45:44;;;;;;;10.33;5.97;;;;;;;;;;5003940;28;20528;-74
2022/04/12 01:48:09;;;;;;;10.80;6.72;;;;;;;;;;5006654;28;20264;-74
2022/04/12 01:50:34;;;;;;;9.20;5.37;;;;;;;;;;5003947;28;20737;-74
2022/04/12 01:52:59;;;;;;;8.30;5.57;;;;;;;;;;5004097;28;20267;-74
2022/04/12 01:55:24;;;;;;;9.93;5.90;;;;;;;;;;5005137;28;20346;-74
2022/04/12 01:57:51;;;;;;;9.57;5.88;;;;;;;;;;4999667;28;20283;-74
2022/04/12 02:00:16;;;;;;;12.63;6.10;;;;;;;;;;5000174;28;20271;-74
2022/04/12 02:02:41;;;;;;;14.13;6.05;;;;;;;;;;5005026;28;20036;-74
2022/04/12 02:05:07;;;;;;;13.35;5.55;;;;;;;;;;4999096;28;20032;-74
2022/04/12 02:07:32;;;;;;;9.57;5.05;;;;;;;;;;5000656;28;20552;-73
2022/04/12 02:09:57;;;;;;;10.88;5.57;;;;;;;;;;5007606;28;20021;-74
2022/04/12 02:12:22;;;;;;;14.00;5.88;;;;;;;;;;5002358;28;20033;-74
2022/04/12 02:14:47;;;;;;;11.70;5.95;;;;;;;;;;4999678;28;20045;-74
2022/04/12 02:17:13;;;;;;;8.63;5.30;;;;;;;;;;5000757;28;20817;-74
2022/04/12 02:19:38;;;;;;;9.02;5.57;;;;;;;;;;4998470;28;20275;-74
2022/04/12 02:22:05;;;;;;;13.20;6.40;;;;;;;;;;5002756;28;20291;-74
2022/04/12 02:24:30;;;;;;;10.90;5.63;;;;;;;;;;4999476;28;20275;-74
2022/04/12 02:26:55;;;;;;;9.60;5.85;;;;;;;;;;5000176;28;20030;-74
2022/04/12 02:29:20;;;;;;;10.00;5.28;;;;;;;;;;5008722;28;20152;-73
2022/04/12 02:31:46;;;;;;;12.07;6.03;;;;;;;;;;4999617;28;20038;-74
2022/04/12 02:34:11;;;;;;;12.03;5.80;;;;;;;;;;4997537;28;20042;-74
2022/04/12 02:36:36;;;;;;;14.20;6.17;;;;;;;;;;5007036;28;20314;-74
2022/04/12 02:39:02;;;;;;;12.60;5.90;;;;;;;;;;5007993;28;20275;-74
2022/04/12 02:41:27;;;;;;;12.63;6.75;;;;;;;;;;5008616;28;20368;-74
2022/04/12 02:43:52;;;;;;;7.88;5.57;;;;;;;;;;5013748;28;20352;-74
2022/04/12 02:46:17;;;;;;;11.32;6.10;;;;;;;;;;5006848;28;20034;-74
2022/04/12 02:48:43;;;;;;;12.80;6.35;;;;;;;;;;5004655;28;20406;-74
2022/04/12 02:51:08;;;;;;;12.00;5.93;;;;;;;;;;5011880;28;20067;-73
2022/04/12 02:53:33;;;;;;;12.52;5.80;;;;;;;;;;5011094;28;20028;-74
2022/04/12 02:55:58;;;;;;;13.47;6.77;;;;;;;;;;5004268;28;20030;-74
2022/04/12 02:58:23;;;;;;;10.23;6.10;;;;;;;;;;4996171;28;20294;-74
2022/04/12 03:00:48;;;;;;;10.73;6.10;;;;;;;;;;5005072;28;20495;-74
2022/04/12 03:03:14;;;;;;;10.23;6.45;;;;;;;;;;5011375;28;20552;-75
2022/04/12 03:05:39;;;;;;;11.90;6.25;;;;;;;;;;5007446;28;20264;-74
2022/04/12 03:08:05;;;;;;;9.95;6.13;;;;;;;;;;5004188;28;20358;-73
2022/04/12 03:10:30;;;;;;;13.68;6.82;;;;;;;;;;5006158;28;20685;-74
2022/04/12 03:12:55;;;;;;;9.63;5.88;;;;;;;;;;5004472;28;20053;-73
2022/04/12 03:15:20;;;;;;;15.32;6.18;;;;;;;;;;4999520;28;20030;-73
2022/04/12 03:17:46;;;;;;;11.82;5.95;;;;;;;;;;5010475;28;20327;-74
2022/04/12 03:20:12;;;;;;;11.20;6.22;;;;;;;;;;5010137;28;20030;-74
2022/04/12 03:22:37;;;;;;;12.00;6.05;;;;;;;;;;5011649;28;20064;-74
2022/04/12 03:25:02;;;;;;;15.38;6.22;;;;;;;;;;5004519;28;20038;-74
2022/04/12 03:27:28;;;;;;;10.93;6.30;;;;;;;;;;5011079;28;20075;-73
2022/04/12 03:29:53;;;;;;;9.88;6.13;;;;;;;;;;5011088;28;20121;-74
2022/04/12 03:32:18;;;;;;;13.07;6.10;;;;;;;;;;4999612;28;20033;-73
2022/04/12 03:34:45;;;;;;;11.45;6.15;;;;;;;;;;5017979;28;20033;-73
2022/04/12 03:37:10;;;;;;;13.05;6.65;;;;;;;;;;5005857;28;20026;-73
2022/04/12 03:39:36;;;;;;;14.10;6.82;;;;;;;;;;5004761;28;20033;-73
2022/04/12 03:42:01;;;;;;;12.50;6.85;;;;;;;;;;4999157;28;20421;-73
2022/04/12 03:44:26;;;;;;;12.55;5.88;;;;;;;;;;5019758;28;20534;-74
2022/04/12 03:46:51;;;;;;;17.63;7.60;;;;;;;;;;5008110;28;20057;-74
2022/04/12 03:49:16;;;;;;;11.27;6.20;;;;;;;;;;5017504;28;20022;-74
2022/04/12 03:51:41;;;;;;;10.30;6.03;;;;;;;;;;5000691;28;20284;-74
2022/04/12 03:54:07;;;;;;;12.57;6.38;;;;;;;;;;5017481;28;20301;-74
2022/04/12 03:56:32;;;;;;;10.88;6.13;;;;;;;;;;5004327;28;20279;-74
2022/04/12 03:58:58;;;;;;;12.18;6.90;;;;;;;;;;5006442;28;20081;-75
2022/04/12 04:01:24;;;;;;;15.02;7.18;;;;;;;;;;5002272;28;20112;-73
2022/04/12 04:03:49;;;;;;;10.57;6.60;;;;;;;;;;5022740;28;20030;-74
2022/04/12 04:06:14;;;;;;;12.13;6.35;;;;;;;;;;5007010;28;20472;-74
2022/04/12 04:08:39;;;;;;;13.10;6.82;;;;;;;;;;5021799;28;20263;-74
2022/04/12 04:11:04;;;;;;;13.57;6.55;;;;;;;;;;5013339;28;20072;-74
2022/04/12 04:13:36;;;;;;;10.00;5.78;;;;;;;;;;5009260;28;20539;-74
2022/04/12 04:16:01;;;;;;;11.60;6.78;;;;;;;;;;5010834;28;20354;-73
2022/04/12 04:18:26;;;;;;;13.02;6.60;;;;;;;;;;5010210;28;20084;-73
2022/04/12 04:20:52;;;;;;;12.02;6.35;;;;;;;;;;5000045;28;20342;-73
2022/04/12 04:23:17;;;;;;;12.73;6.50;;;;;;;;;;5001233;28;20451;-75
2022/04/12 04:25:42;;;;;;;10.00;6.32;;;;;;;;;;5006624;28;20271;-74
2022/04/12 04:28:11;;;;;;;9.18;6.53;;;;;;;;;;5007897;28;20282;-74
2022/04/12 04:30:37;;;;;;;11.65;6.50;;;;;;;;;;5006805;28;20287;-74
2022/04/12 04:33:02;;;;;;;15.52;7.05;;;;;;;;;;5005566;28;20469;-74
2022/04/12 04:35:27;;;;;;;12.85;6.45;;;;;;;;;;5006033;28;20034;-74
2022/04/12 04:37:52;;;;;;;9.45;6.32;;;;;;;;;;5003279;28;20069;-74
2022/04/12 04:40:21;;;;;;;12.35;6.88;;;;;;;;;;5004354;28;20036;-74
2022/04/12 04:42:47;;;;;;;11.68;6.90;;;;;;;;;;5006006;28;20026;-73
2022/04/12 04:45:13;;;;;;;12.23;6.43;;;;;;;;;;5006135;28;20022;-73
2022/04/12 04:47:51;;;;;;;11.27;6.55;;;;;;;;;;5008633;28;20400;-73
2022/04/12 04:50:21;;;;;;;14.88;7.60;;;;;;;;;;5008884;28;20030;-74
2022/04/12 04:52:46;;;;;;;12.93;6.95;;;;;;;;;;5007819;28;20045;-74
2022/04/12 04:55:12;;;;;;;16.13;6.38;;;;;;;;;;5003215;28;20028;-73
2022/04/12 04:57:40;;;;;;;12.38;6.72;;;;;;;;;;5003969;28;20032;-74
2022/04/12 05:00:09;;;;;;;13.00;6.68;;;;;;;;;;5012312;28;20032;-73
2022/04/12 05:02:35;;;;;;;13.00;6.40;;;;;;;;;;5002890;28;20361;-74
2022/04/12 05:05:03;;;;;;;11.13;5.60;;;;;;;;;;5001561;28;20508;-73
2022/04/12 05:07:28;;;;;;;11.63;7.05;;;;;;;;;;4997784;28;20025;-74
2022/04/12 05:09:53;;;;;;;12.00;6.90;;;;;;;;;;5004195;28;20066;-73
2022/04/12 05:12:19;;;;;;;10.00;6.47;;;;;;;;;;5005583;28;20749;-74
2022/04/12 05:14:44;;;;;;;14.23;7.18;;;;;;;;;;5004337;28;20060;-69
2022/04/12 05:17:09;;;;;;;16.20;6.35;;;;;;;;;;5003822;28;20603;-74
2022/04/12 05:19:34;;;;;;;11.17;6.50;;;;;;;;;;5004215;28;20279;-76
2022/04/12 05:21:59;;;;;;;14.93;7.20;;;;;;;;;;5004975;28;20642;-73
2022/04/12 05:24:25;;;;;;;16.00;7.28;;;;;;;;;;5004852;28;20267;-75
2022/04/12 05:26:50;;;;;;;13.90;7.28;;;;;;;;;;5001507;28;20072;-75
2022/04/12 05:29:15;;;;;;;12.40;7.07;;;;;;;;;;5000028;28;20096;-75
2022/04/12 05:31:41;;;;;;;13.00;6.47;;;;;;;;;;5007143;28;20029;-75
2022/04/12 05:34:06;;;;;;;13.27;7.38;;;;;;;;;;5002214;28;20037;-76
2022/04/12 05:36:31;;;;;;;14.57;6.93;;;;;;;;;;4999467;28;20064;-73
2022/04/12 05:38:57;;;;;;;14.35;7.35;;;;;;;;;;5004454;28;20350;-75
2022/04/12 05:41:22;;;;;;;16.70;7.75;;;;;;;;;;5005378;28;20029;-75
2022/04/12 05:43:47;;;;;;;16.58;7.68;;;;;;;;;;5009154;28;20032;-76
2022/04/12 05:46:12;;;;;;;15.23;6.80;;;;;;;;;;5013943;28;20022;-77
2022/04/12 05:48:37;;;;;;;18.23;6.93;;;;;;;;;;5007722;28;20248;-76
2022/04/12 05:51:03;;;;;;;30.10;8.95;;;;;;;;;;5003034;28;20029;-75
2022/04/12 05:53:28;;;;;;;16.80;7.57;;;;;;;;;;4999494;28;20021;-75
2022/04/12 05:55:53;;;;;;;16.05;7.47;;;;;;;;;;5007059;28;20021;-75
2022/04/12 05:58:19;;;;;;;26.83;8.15;;;;;;;;;;4994283;28;20146;-75
2022/04/12 06:00:44;;;;;;;41.40;8.95;;;;;;;;;;5000110;28;20416;-74
2022/04/12 06:03:09;;;;;;;24.23;7.65;;;;;;;;;;4999113;28;20477;-74
2022/04/12 06:05:34;;;;;;;18.98;7.88;;;;;;;;;;4993032;28;20377;-75
2022/04/12 06:08:00;;;;;;;31.50;8.35;;;;;;;;;;5000634;28;20068;-75
2022/04/12 06:10:25;;;;;;;13.00;7.63;;;;;;;;;;5007735;28;20159;-74
2022/04/12 06:12:51;;;;;;;14.65;7.25;;;;;;;;;;5000879;28;20061;-74
2022/04/12 06:15:16;;;;;;;16.30;7.40;;;;;;;;;;4996750;28;20044;-75
2022/04/12 06:17:41;;;;;;;15.10;7.22;;;;;;;;;;5000250;28;20037;-74
2022/04/12 06:20:08;;;;;;;15.07;7.43;;;;;;;;;;5002087;28;20033;-74
2022/04/12 06:22:33;;;;;;;17.90;7.50;;;;;;;;;;5000012;28;20048;-74
2022/04/12 06:24:58;;;;;;;17.05;7.95;;;;;;;;;;5004877;28;20030;-74
2022/04/12 06:27:34;;;;;;;21.92;8.25;;;;;;;;;;5002484;28;20101;-74
2022/04/12 06:30:03;;;;;;;163.35;23.77;;;;;;;;;;5000567;28;20032;-74
2022/04/12 06:32:28;;;;;;;31.42;9.07;;;;;;;;;;5004815;28;20147;-74
2022/04/12 06:34:53;;;;;;;22.48;9.00;;;;;;;;;;5002757;28;20117;-72
2022/04/12 06:37:19;;;;;;;17.88;8.05;;;;;;;;;;4998938;28;20037;-75
2022/04/12 06:39:44;;;;;;;16.02;8.05;;;;;;;;;;5001723;28;20188;-74
2022/04/12 06:42:09;;;;;;;16.37;7.90;;;;;;;;;;5001718;28;20567;-75
2022/04/12 06:44:37;;;;;;;45.20;10.43;;;;;;;;;;5004205;28;20267;-75
2022/04/12 06:47:02;;;;;;;19.83;8.55;;;;;;;;;;4996124;28;20044;-75
2022/04/12 06:49:27;;;;;;;17.10;7.45;;;;;;;;;;5006350;28;20021;-75
2022/04/12 06:51:52;;;;;;;19.08;8.70;;;;;;;;;;5002808;28;20045;-75
2022/04/12 06:54:17;;;;;;;26.33;8.60;;;;;;;;;;5003798;28;20161;-73
2022/04/12 06:56:43;;;;;;;12.65;7.07;;;;;;;;;;5001581;28;20034;-75
2022/04/12 06:59:09;;;;;;;15.38;8.30;;;;;;;;;;5002958;28;20037;-76
2022/04/12 07:01:34;;;;;;;18.58;8.65;;;;;;;;;;5005037;28;20456;-76
2022/04/12 07:03:59;;;;;;;16.08;9.88;;;;;;;;;;5001344;28;20416;-76
2022/04/12 07:06:24;;;;;;;15.25;9.63;;;;;;;;;;4999736;28;20422;-75
2022/04/12 07:08:49;;;;;;;17.27;8.63;;;;;;;;;;4997595;28;20084;-75
2022/04/12 07:11:14;;;;;;;19.08;9.20;;;;;;;;;;4996124;28;20022;-75
2022/04/12 07:13:39;;;;;;;12.30;8.63;;;;;;;;;;4996882;28;20061;-76
2022/04/12 07:16:05;;;;;;;16.60;8.63;;;;;;;;;;5011773;28;20271;-76
2022/04/12 07:18:30;;;;;;;15.95;9.35;;;;;;;;;;4998871;28;20364;-75
2022/04/12 07:20:55;;;;;;;13.80;7.72;;;;;;;;;;5001947;28;20041;-75
2022/04/12 07:23:20;;;;;;;21.73;9.95;;;;;;;;;;4997601;28;20060;-75
2022/04/12 07:25:46;;;;;;;19.00;9.05;;;;;;;;;;4998003;28;20061;-76
2022/04/12 07:28:11;;;;;;;18.50;8.70;;;;;;;;;;4994959;28;20080;-76
2022/04/12 07:30:36;;;;;;;23.38;8.32;;;;;;;;;;4991227;28;20388;-76
2022/04/12 07:33:01;;;;;;;18.83;8.77;;;;;;;;;;4999940;28;20030;-75
2022/04/12 07:35:27;;;;;;;21.07;10.13;;;;;;;;;;5000007;28;20646;-77
2022/04/12 07:37:52;;;;;;;20.65;9.95;;;;;;;;;;4995875;28;20399;-76
2022/04/12 07:40:17;;;;;;;17.20;9.00;;;;;;;;;;4997908;28;20396;-76
2022/04/12 07:42:43;;;;;;;20.87;9.73;;;;;;;;;;4992555;28;20033;-76
2022/04/12 07:45:08;;;;;;;22.67;9.50;;;;;;;;;;4994883;28;20286;-76
2022/04/12 07:47:35;;;;;;;16.95;10.07;;;;;;;;;;4994407;28;20084;-75
2022/04/12 07:50:00;;;;;;;22.33;9.23;;;;;;;;;;5004463;28;20342;-75
2022/04/12 07:52:25;;;;;;;26.45;10.90;;;;;;;;;;5000624;28;20045;-72
2022/04/12 07:54:50;;;;;;;19.58;9.35;;;;;;;;;;5001066;28;20080;-75
2022/04/12 07:57:16;;;;;;;21.67;9.57;;;;;;;;;;5006611;28;20293;-75
2022/04/12 07:59:41;;;;;;;17.38;10.38;;;;;;;;;;5006304;28;20037;-75
2022/04/12 08:02:06;;;;;;;19.52;10.27;;;;;;;;;;5004237;28;20379;-75
2022/04/12 08:04:31;;;;;;;30.20;12.25;;;;;;;;;;4999153;28;20247;-74
2022/04/12 08:06:56;;;;;;;16.80;10.23;;;;;;;;;;5011183;28;20022;-76
2022/04/12 08:09:21;;;;;;;82.43;14.13;;;;;;;;;;5008504;28;20296;-75
2022/04/12 08:11:47;;;;;;;36.17;13.20;;;;;;;;;;5005779;28;20851;-75
2022/04/12 08:14:12;;;;;;;90.07;18.33;;;;;;;;;;5003914;28;20037;-75
2022/04/12 08:16:37;;;;;;;27.13;10.93;;;;;;;;;;5005516;28;20494;-76
2022/04/12 08:19:02;;;;;;;60.10;13.50;;;;;;;;;;5009749;28;20459;-75
2022/04/12 08:21:31;;;;;;;57.80;13.82;;;;;;;;;;4999138;28;20050;-76
2022/04/12 08:23:56;;;;;;;94.82;17.42;;;;;;;;;;5006349;28;20104;-75
2022/04/12 08:26:22;;;;;;;29.75;11.02;;;;;;;;;;5005287;28;20026;-75
2022/04/12 08:28:47;;;;;;;21.90;10.57;;;;;;;;;;5007589;28;20040;-76
2022/04/12 08:31:12;;;;;;;36.28;10.10;;;;;;;;;;5005818;28;20714;-75
2022/04/12 08:33:38;;;;;;;26.67;11.60;;;;;;;;;;5006557;28;20032;-75
2022/04/12 08:36:04;;;;;;;16.95;9.90;;;;;;;;;;5018606;28;20081;-75
2022/04/12 08:38:29;;;;;;;21.00;10.70;;;;;;;;;;5007431;28;20026;-76
2022/04/12 08:40:55;;;;;;;17.80;9.63;;;;;;;;;;5006454;28;20030;-75
2022/04/12 08:43:21;;;;;;;29.15;10.05;;;;;;;;;;5005486;28;20468;-76
2022/04/12 08:45:48;;;;;;;35.08;10.38;;;;;;;;;;5001348;28;20018;-76
2022/04/12 08:48:14;;;;;;;18.77;10.27;;;;;;;;;;5008650;28;20016;-75
2022/04/12 08:50:39;;;;;;;25.23;8.90;;;;;;;;;;5005310;28;20022;-75
2022/04/12 08:53:06;;;;;;;17.13;7.97;;;;;;;;;;5004455;28;20026;-75
2022/04/12 08:55:32;;;;;;;16.15;8.38;;;;;;;;;;5005128;28;20068;-76
2022/04/12 08:57:57;;;;;;;43.92;9.88;;;;;;;;;;5006942;28;20034;-75
2022/04/12 09:00:22;;;;;;;12.20;8.35;;;;;;;;;;5009219;28;20026;-75
2022/04/12 09:02:53;;;;;;;16.20;8.80;;;;;;;;;;5017129;28;20079;-74
2022/04/12 09:05:20;;;;;;;17.90;8.57;;;;;;;;;;5009467;28;20271;-75
2022/04/12 09:07:47;;;;;;;20.08;8.40;;;;;;;;;;5002673;28;20029;-75
2022/04/12 09:10:13;;;;;;;147.68;15.50;;;;;;;;;;5010329;28;20077;-75
2022/04/12 09:12:38;;;;;;;14.38;8.57;;;;;;;;;;5007321;28;20034;-75
2022/04/12 09:15:09;;;;;;;16.80;8.63;;;;;;;;;;5003423;28;20022;-75
2022/04/12 09:17:36;;;;;;;25.65;9.50;;;;;;;;;;5004663;28;20022;-75
2022/04/12 09:20:02;;;;;;;14.63;8.77;;;;;;;;;;5004730;28;20024;-75
2022/04/12 09:22:28;;;;;;;17.27;9.15;;;;;;;;;;5003286;28;20132;-76
2022/04/12 09:24:54;;;;;;;18.08;8.18;;;;;;;;;;5006668;28;20516;-74
2022/04/12 09:27:20;;;;;;;15.65;9.07;;;;;;;;;;5003085;28;20034;-73
2022/04/12 09:29:49;;;;;;;20.20;9.23;;;;;;;;;;5004960;28;20094;-76
2022/04/12 09:32:15;;;;;;;12.75;7.22;;;;;;;;;;5004124;28;20025;-74
2022/04/12 09:34:41;;;;;;;19.92;8.18;;;;;;;;;;5001692;28;20026;-76
2022/04/12 09:37:17;;;;;;;17.48;8.07;;;;;;;;;;5003852;28;20105;-75
2022/04/12 09:39:42;;;;;;;13.93;7.28;;;;;;;;;;5006897;28;20028;-74
2022/04/12 09:42:07;;;;;;;12.52;6.97;;;;;;;;;;5001531;28;20675;-75
2022/04/12 09:44:32;;;;;;;16.23;8.02;;;;;;;;;;5003587;28;20392;-75
2022/04/12 09:47:00;;;;;;;13.48;7.75;;;;;;;;;;4997900;28;20022;-76
2022/04/12 09:49:26;;;;;;;13.05;7.20;;;;;;;;;;5002731;28;20037;-74
2022/04/12 09:51:51;;;;;;;12.93;7.55;;;;;;;;;;5005335;28;20134;-73
2022/04/12 09:54:23;;;;;;;18.00;8.45;;;;;;;;;;5001558;28;20457;-76
2022/04/12 09:56:49;;;;;;;12.93;8.63;;;;;;;;;;4996961;28;20022;-76
2022/04/12 09:59:14;;;;;;;19.13;8.45;;;;;;;;;;5010733;28;20029;-75
2022/04/12 10:01:39;;;;;;;15.77;8.90;;;;;;;;;;5012997;28;20029;-77
2022/04/12 10:04:07;;;;;;;15.38;8.77;;;;;;;;;;5007817;28;20675;-76
2022/04/12 10:06:36;;;;;;;15.23;8.98;;;;;;;;;;5012685;28;20017;-76
2022/04/12 10:09:03;;;;;;;16.42;8.65;;;;;;;;;;5004634;28;20026;-77
2022/04/12 10:11:28;;;;;;;17.45;6.80;;;;;;;;;;5009061;28;20408;-76
2022/04/12 10:13:53;;;;;;;16.23;8.97;;;;;;;;;;5008437;28;20034;-76
2022/04/12 10:16:20;;;;;;;15.27;8.85;;;;;;;;;;5007335;28;20030;-75
2022/04/12 10:18:45;;;;;;;17.58;8.30;;;;;;;;;;5004114;28;20030;-76
2022/04/12 10:21:12;;;;;;;19.45;10.18;;;;;;;;;;5017827;28;20033;-75
2022/04/12 10:23:37;;;;;;;18.17;9.23;;;;;;;;;;5025675;28;20025;-76
2022/04/12 10:26:02;;;;;;;13.40;8.20;;;;;;;;;;5005240;28;20036;-76
2022/04/12 10:28:28;;;;;;;13.07;8.60;;;;;;;;;;5005855;28;20105;-76
2022/04/12 10:31:12;;;;;;;15.15;7.50;;;;;;;;;;5005986;28;20093;-77
2022/04/12 10:33:37;;;;;;;;;;;;;;;;;;5005000;28;20068;-77
2022/04/12 10:36:05;;;;;;;17.38;8.02;;;;;;;;;;5010015;28;19953;-76
2022/04/12 10:38:39;;;;;;;13.30;7.68;;;;;;;;;;5011469;28;20026;-76
2022/04/12 10:41:11;;;;;;;15.95;8.32;;;;;;;;;;5006912;28;20033;-76
2022/04/12 10:43:38;;;;;;;19.20;7.60;;;;;;;;;;5005353;28;20034;-77
2022/04/12 10:46:04;;;;;;;24.35;8.75;;;;;;;;;;4998228;28;20021;-77
2022/04/12 10:48:29;;;;;;;19.55;8.57;;;;;;;;;;5005635;28;20421;-77
2022/04/12 10:50:56;;;;;;;17.98;9.00;;;;;;;;;;5006978;28;20040;-77
2022/04/12 10:53:39;;;;;;;18.83;9.45;;;;;;;;;;5002050;28;20112;-77
2022/04/12 10:56:07;;;;;;;14.98;8.05;;;;;;;;;;5008092;28;20034;-77
2022/04/12 10:58:35;;;;;;;24.13;11.05;;;;;;;;;;5007364;28;20501;-76
2022/04/12 11:01:01;;;;;;;18.15;8.20;;;;;;;;;;5005760;28;20026;-76
2022/04/12 11:03:47;;;;;;;17.58;9.00;;;;;;;;;;5012702;28;20045;-76
2022/04/12 11:06:20;;;;;;;24.02;9.23;;;;;;;;;;4997449;28;20084;-75
2022/04/12 11:08:49;;;;;;;24.13;10.45;;;;;;;;;;5006293;28;20018;-76
2022/04/12 11:11:21;;;;;;;30.52;10.82;;;;;;;;;;5006833;28;20025;-77
2022/04/12 11:13:49;;;;;;;16.98;9.68;;;;;;;;;;5006028;28;20137;-76
2022/04/12 11:16:16;;;;;;;30.95;9.32;;;;;;;;;;4998466;28;20575;-77
2022/04/12 11:18:46;;;;;;;16.13;7.80;;;;;;;;;;5011743;28;20372;-77
2022/04/12 11:21:11;;;;;;;24.13;8.55;;;;;;;;;;5000689;28;20026;-77
2022/04/12 11:23:46;;;;;;;20.88;8.00;;;;;;;;;;4999554;28;20031;-75
2022/04/12 11:26:26;;;;;;;21.60;10.73;;;;;;;;;;5005876;28;20076;-75
2022/04/12 11:28:51;;;;;;;21.70;8.35;;;;;;;;;;5004676;28;20133;-77
2022/04/12 11:31:16;;;;;;;21.67;7.90;;;;;;;;;;5011317;28;20619;-77
2022/04/12 11:33:41;;;;;;;19.05;8.52;;;;;;;;;;5017821;28;20026;-77
2022/04/12 11:36:07;;;;;;;17.43;9.83;;;;;;;;;;5000734;28;20527;-74
2022/04/12 11:38:32;;;;;;;18.45;8.30;;;;;;;;;;5009026;28;20745;-77
2022/04/12 11:41:00;;;;;;;19.77;8.68;;;;;;;;;;5010523;28;20026;-76
2022/04/12 11:43:26;;;;;;;17.80;8.18;;;;;;;;;;5014630;28;20076;-77
2022/04/12 11:45:58;;;;;;;19.00;8.68;;;;;;;;;;5009178;28;20021;-76
2022/04/12 11:48:29;;;;;;;16.05;7.90;;;;;;;;;;5020521;28;20417;-77
2022/04/12 11:50:55;;;;;;;15.15;7.55;;;;;;;;;;5007132;28;20042;-77
2022/04/12 11:53:22;;;;;;;20.85;8.35;;;;;;;;;;5009149;28;20083;-77
2022/04/12 11:55:47;;;;;;;21.35;8.93;;;;;;;;;;5009413;28;20145;-77
2022/04/12 11:58:13;;;;;;;18.55;8.95;;;;;;;;;;5011056;28;20450;-74
2022/04/12 12:00:38;;;;;;;18.55;8.18;;;;;;;;;;5020559;28;20033;-77
2022/04/12 12:03:03;;;;;;;15.00;7.28;;;;;;;;;;5013518;28;20125;-77
2022/04/12 12:05:30;;;;;;;19.20;8.23;;;;;;;;;;5010110;28;20033;-76
2022/04/12 12:07:59;;;;;;;20.48;8.45;;;;;;;;;;5008196;28;20054;-75
2022/04/12 12:10:24;;;;;;;22.13;8.30;;;;;;;;;;5008204;28;20047;-75
2022/04/12 12:12:49;;;;;;;21.55;7.30;;;;;;;;;;5011999;28;20476;-77
2022/04/12 12:15:18;;;;;;;21.47;8.60;;;;;;;;;;5013406;28;20034;-76
2022/04/12 12:17:44;;;;;;;17.73;8.50;;;;;;;;;;5005074;28;20104;-76
2022/04/12 12:20:10;;;;;;;17.45;7.30;;;;;;;;;;5024709;28;20079;-75
2022/04/12 12:22:39;;;;;;;14.48;6.43;;;;;;;;;;5010629;28;20022;-77
2022/04/12 12:25:05;;;;;;;15.73;7.13;;;;;;;;;;5009694;28;20492;-75
2022/04/12 12:27:34;;;;;;;17.92;6.30;;;;;;;;;;5007986;28;20021;-75
2022/04/12 12:30:00;;;;;;;15.48;7.13;;;;;;;;;;5025624;28;20115;-75
2022/04/12 12:32:29;;;;;;;15.43;6.28;;;;;;;;;;5012385;28;20113;-74
2022/04/12 12:35:00;;;;;;;16.88;6.00;;;;;;;;;;5016319;28;20068;-76
2022/04/12 12:37:25;;;;;;;12.45;5.28;;;;;;;;;;5010278;28;20108;-77
2022/04/12 12:39:50;;;;;;;12.73;6.65;;;;;;;;;;5017100;28;20504;-76
2022/04/12 12:42:15;;;;;;;14.02;5.22;;;;;;;;;;5004068;28;20034;-77
2022/04/12 12:44:40;;;;;;;13.73;6.88;;;;;;;;;;5013405;28;20855;-76
2022/04/12 12:47:06;;;;;;;16.77;5.13;;;;;;;;;;4997721;28;20373;-76
2022/04/12 12:49:35;;;;;;;10.80;4.97;;;;;;;;;;4997662;28;20064;-77
2022/04/12 12:52:05;;;;;;;16.30;6.53;;;;;;;;;;5003874;28;20026;-76
2022/04/12 12:54:30;;;;;;;15.95;5.47;;;;;;;;;;5014002;23;20074;-77
2022/04/12 12:56:55;;;;;;;12.67;6.07;;;;;;;;;;4994272;28;20025;-75
2022/04/12 12:59:26;;;;;;;16.50;6.70;;;;;;;;;;4993071;28;20600;-75
2022/04/12 13:01:53;;;;;;;19.83;7.45;;;;;;;;;;4988056;28;20064;-74
2022/04/12 13:04:22;;;;;;;15.32;6.57;;;;;;;;;;4988737;28;20029;-76
2022/04/12 13:06:58;;;;;;;11.45;5.43;;;;;;;;;;4983658;28;20604;-74
2022/04/12 13:09:23;;;;;;;13.18;6.75;;;;;;;;;;4989952;28;20045;-76
2022/04/12 13:11:48;;;;;;;17.63;6.47;;;;;;;;;;4986030;28;20432;-76
2022/04/12 13:14:13;;;;;;;11.88;5.65;;;;;;;;;;4987612;28;20094;-75
2022/04/12 13:16:38;;;;;;;16.23;6.25;;;;;;;;;;4982867;28;20573;-75
2022/04/12 13:19:04;;;;;;;13.95;5.70;;;;;;;;;;4987225;28;20427;-76
2022/04/12 13:21:29;;;;;;;16.05;5.40;;;;;;;;;;4992320;28;20445;-76
2022/04/12 13:23:54;;;;;;;16.80;5.38;;;;;;;;;;4992452;28;20052;-76
2022/04/12 13:26:19;;;;;;;13.63;6.30;;;;;;;;;;4994586;28;20029;-74
2022/04/12 13:28:48;;;;;;;13.48;6.28;;;;;;;;;;4986739;28;20120;-76
2022/04/12 13:31:13;;;;;;;14.52;6.25;;;;;;;;;;4988680;28;20144;-74
2022/04/12 13:33:38;;;;;;;11.13;5.83;;;;;;;;;;4988196;28;20042;-75
2022/04/12 13:36:03;;;;;;;15.27;6.43;;;;;;;;;;4982128;28;20030;-76
2022/04/12 13:38:29;;;;;;;13.40;5.72;;;;;;;;;;4987713;28;20358;-75
2022/04/12 13:40:54;;;;;;;13.80;5.37;;;;;;;;;;4995004;28;20026;-76
2022/04/12 13:43:19;;;;;;;15.93;6.38;;;;;;;;;;4990667;28;20033;-75
2022/04/12 13:45:44;;;;;;;16.17;6.10;;;;;;;;;;4993916;28;20025;-75
2022/04/12 13:48:10;;;;;;;15.20;6.40;;;;;;;;;;4987204;28;20026;-75
2022/04/12 13:50:35;;;;;;;14.50;7.13;;;;;;;;;;4988777;28;20034;-76
2022/04/12 13:53:00;;;;;;;12.53;6.63;;;;;;;;;;4986768;28;20080;-74
2022/04/12 13:55:25;;;;;;;11.87;6.57;;;;;;;;;;4995249;28;20034;-76
2022/04/12 13:57:50;;;;;;;13.27;6.70;;;;;;;;;;4991598;28;20070;-75
2022/04/12 14:00:16;;;;;;;12.40;5.83;;;;;;;;;;4983007;28;20355;-76
2022/04/12 14:02:41;;;;;;;13.60;5.97;;;;;;;;;;4976790;28;20334;-72
2022/04/12 14:05:06;;;;;;;16.60;5.80;;;;;;;;;;4978642;28;20041;-71
2022/04/12 14:07:32;;;;;;;19.60;7.28;;;;;;;;;;4985826;28;20383;-74
2022/04/12 14:09:57;;;;;;;14.23;6.68;;;;;;;;;;4979512;28;20077;-74
2022/04/12 14:12:22;;;;;;;14.57;6.03;;;;;;;;;;4981283;28;20376;-74
2022/04/12 14:14:47;;;;;;;12.27;7.40;;;;;;;;;;4982279;28;20049;-73
2022/04/12 14:17:13;;;;;;;15.90;7.05;;;;;;;;;;5000541;28;20757;-69
2022/04/12 14:19:40;;;;;;;16.92;7.20;;;;;;;;;;4979543;28;20026;-73
2022/04/12 14:22:07;;;;;;;15.02;6.72;;;;;;;;;;4996247;28;20047;-72
2022/04/12 14:24:32;;;;;;;15.57;6.45;;;;;;;;;;4985778;28;20015;-71
2022/04/12 14:26:57;;;;;;;13.88;5.30;;;;;;;;;;5001377;28;20065;-71